createdAt,value
2023-04-08T00:01:23.136Z,99.90
2023-04-08T00:03:51.568Z,99.90
2023-04-08T00:06:19.899Z,99.90
2023-04-08T00:08:48.289Z,1.00
2023-04-08T00:11:16.627Z,1.00
2023-04-08T00:13:44.812Z,1.00
2023-04-08T00:16:12.994Z,1.00
2023-04-08T00:18:42.780Z,1.00
2023-04-08T00:21:11.028Z,1.00
2023-04-08T00:23:39.190Z,1.00
2023-04-08T00:26:07.576Z,1.00
2023-04-08T00:28:35.705Z,63.70
2023-04-08T00:31:03.916Z,99.90
2023-04-08T00:33:32.621Z,48.20
2023-04-08T00:36:02.251Z,99.90
2023-04-08T00:38:30.977Z,64.60
2023-04-08T00:40:59.479Z,99.90
2023-04-08T00:43:27.741Z,99.90
2023-04-08T00:45:56.043Z,1.00
2023-04-08T00:48:24.356Z,99.90
2023-04-08T00:50:52.712Z,99.90
2023-04-08T00:53:23.291Z,99.90
2023-04-08T00:55:52.666Z,1.00
2023-04-08T00:58:21.123Z,1.00
2023-04-08T01:00:57.606Z,1.00
2023-04-08T01:03:34.179Z,1.00
2023-04-08T01:06:14.473Z,1.00
2023-04-08T01:08:45.601Z,99.90
2023-04-08T01:11:15.661Z,99.90
2023-04-08T01:13:45.333Z,99.90
2023-04-08T01:16:16.760Z,99.90
2023-04-08T01:18:46.348Z,1.00
2023-04-08T01:21:16.018Z,11.00
2023-04-08T01:23:59.964Z,99.90
2023-04-08T01:26:30.388Z,99.90
2023-04-08T01:29:01.907Z,99.90
2023-04-08T01:31:32.054Z,1.00
2023-04-08T01:34:02.720Z,1.00
2023-04-08T01:36:32.743Z,1.00
2023-04-08T01:39:03.021Z,99.90
2023-04-08T01:41:35.306Z,99.90
2023-04-08T01:44:04.328Z,94.30
2023-04-08T01:46:33.643Z,1.00
2023-04-08T01:49:02.332Z,37.20
2023-04-08T01:51:32.673Z,99.90
2023-04-08T01:54:01.055Z,1.00
2023-04-08T01:56:30.698Z,1.00
2023-04-08T01:59:03.328Z,1.00
2023-04-08T02:01:34.047Z,1.00
2023-04-08T02:04:04.896Z,1.00
2023-04-08T02:06:33.408Z,99.90
2023-04-08T02:09:02.334Z,99.90
2023-04-08T02:11:30.712Z,99.90
2023-04-08T02:14:00.406Z,1.00
2023-04-08T02:16:33.780Z,1.00
2023-04-08T02:19:09.144Z,99.90
2023-04-08T02:21:50.345Z,99.90
2023-04-08T02:24:19.683Z,1.00
2023-04-08T02:26:50.490Z,1.00
2023-04-08T02:29:20.731Z,60.90
2023-04-08T02:31:51.304Z,94.40
2023-04-08T02:34:22.230Z,99.90
2023-04-08T02:36:51.271Z,99.90
2023-04-08T02:39:19.729Z,1.00
2023-04-08T02:41:50.899Z,1.00
2023-04-08T02:44:20.495Z,1.00
2023-04-08T02:46:48.739Z,18.40
2023-04-08T02:49:16.946Z,66.20
2023-04-08T02:51:45.457Z,99.90
2023-04-08T02:54:13.687Z,99.90
2023-04-08T02:56:42.105Z,99.90
2023-04-08T02:59:10.526Z,99.90
2023-04-08T03:01:40.294Z,1.00
2023-04-08T03:04:28.673Z,1.00
2023-04-08T03:06:56.959Z,1.00
2023-04-08T03:09:28.295Z,1.00
2023-04-08T03:11:56.604Z,1.00
2023-04-08T03:14:24.813Z,1.00
2023-04-08T03:16:54.486Z,1.00
2023-04-08T03:19:22.758Z,1.00
2023-04-08T03:21:51.133Z,1.00
2023-04-08T03:24:19.390Z,1.00
2023-04-08T03:26:47.562Z,1.00
2023-04-08T03:29:15.828Z,1.00
2023-04-08T03:31:44.299Z,30.00
2023-04-08T03:34:13.988Z,55.80
2023-04-08T03:36:42.211Z,99.90
2023-04-08T03:39:10.573Z,99.90
2023-04-08T03:41:38.887Z,99.90
2023-04-08T03:44:07.424Z,99.90
2023-04-08T03:46:35.608Z,99.90
2023-04-08T03:49:03.814Z,99.90
2023-04-08T03:51:33.501Z,99.90
2023-04-08T03:54:01.707Z,99.90
2023-04-08T03:56:29.884Z,99.90
2023-04-08T03:58:58.060Z,99.90
2023-04-08T04:01:26.261Z,99.90
2023-04-08T04:03:54.771Z,1.00
2023-04-08T04:06:23.087Z,1.00
2023-04-08T04:08:54.824Z,1.00
2023-04-08T04:11:23.160Z,1.00
2023-04-08T04:13:51.318Z,1.00
2023-04-08T04:16:19.616Z,1.00
2023-04-08T04:18:47.893Z,1.00
2023-04-08T04:21:16.141Z,1.00
2023-04-08T04:23:44.422Z,1.00
2023-04-08T04:26:14.127Z,1.00
2023-04-08T04:28:42.712Z,1.00
2023-04-08T04:31:19.893Z,1.00
2023-04-08T04:33:48.437Z,1.00
2023-04-08T04:36:16.861Z,1.00
2023-04-08T04:38:45.435Z,1.00
2023-04-08T04:41:14.973Z,1.00
2023-04-08T04:43:43.183Z,1.00
2023-04-08T04:46:11.512Z,1.00
2023-04-08T04:48:39.709Z,1.00
2023-04-08T04:51:08.356Z,1.00
2023-04-08T04:53:36.611Z,1.00
2023-04-08T04:56:05.185Z,1.00
2023-04-08T04:58:34.781Z,1.00
2023-04-08T05:01:02.906Z,1.00
2023-04-08T05:03:31.365Z,1.00
2023-04-08T05:05:59.662Z,1.00
2023-04-08T05:08:28.375Z,1.00
2023-04-08T05:10:56.650Z,1.00
2023-04-08T05:13:24.962Z,1.00
2023-04-08T05:15:54.592Z,1.00
2023-04-08T05:18:22.872Z,1.00
2023-04-08T05:20:51.423Z,1.00
2023-04-08T05:23:20.125Z,1.00
2023-04-08T05:25:48.252Z,1.00
2023-04-08T05:28:16.502Z,1.00
2023-04-08T05:30:44.778Z,1.00
2023-04-08T05:33:14.461Z,99.90
2023-04-08T05:35:42.724Z,99.90
2023-04-08T05:38:11.173Z,1.00
2023-04-08T05:40:39.447Z,1.00
2023-04-08T05:43:07.622Z,1.00
2023-04-08T05:45:35.860Z,1.00
2023-04-08T05:48:04.174Z,1.00
2023-04-08T05:50:35.975Z,56.50
2023-04-08T05:53:04.233Z,1.00
2023-04-08T05:55:32.451Z,58.60
2023-04-08T05:58:00.616Z,99.90
2023-04-08T06:00:29.064Z,1.00
2023-04-08T06:02:57.536Z,99.90
2023-04-08T06:05:26.104Z,1.00
2023-04-08T06:07:55.743Z,99.90
2023-04-08T06:10:24.060Z,99.90
2023-04-08T06:12:53.667Z,1.00
2023-04-08T06:15:23.591Z,1.00
2023-04-08T06:17:53.433Z,1.00
2023-04-08T06:20:25.352Z,1.00
2023-04-08T06:22:58.316Z,99.90
2023-04-08T06:25:29.974Z,99.90
2023-04-08T06:28:00.752Z,99.90
2023-04-08T06:30:29.385Z,99.90
2023-04-08T06:32:57.990Z,99.90
2023-04-08T06:35:28.412Z,99.90
2023-04-08T06:38:00.650Z,99.90
2023-04-08T06:40:28.986Z,99.90
2023-04-08T06:42:57.520Z,99.90
2023-04-08T06:45:35.793Z,99.90
2023-04-08T06:48:04.426Z,99.90
2023-04-08T06:50:32.788Z,99.90
2023-04-08T06:53:02.492Z,99.90
2023-04-08T06:55:31.168Z,99.90
2023-04-08T06:58:02.523Z,99.90
2023-04-08T07:00:30.896Z,99.90
2023-04-08T07:02:59.452Z,99.90
2023-04-08T07:05:29.357Z,99.90
2023-04-08T07:08:04.935Z,99.90
2023-04-08T07:10:35.814Z,99.90
2023-04-08T07:13:04.533Z,99.90
2023-04-08T07:15:32.822Z,99.90
2023-04-08T07:18:01.047Z,99.90
2023-04-08T07:20:31.994Z,99.90
2023-04-08T07:23:00.549Z,99.90
2023-04-08T07:25:29.121Z,99.90
2023-04-08T07:28:02.618Z,99.90
2023-04-08T07:30:45.033Z,99.90
2023-04-08T07:33:13.517Z,99.90
2023-04-08T07:35:42.514Z,99.90
2023-04-08T07:38:12.068Z,99.90
2023-04-08T07:40:40.805Z,99.90
2023-04-08T07:43:10.416Z,99.90
2023-04-08T07:45:38.632Z,99.90
2023-04-08T07:48:07.334Z,99.90
2023-04-08T07:51:08.480Z,99.90
2023-04-08T07:53:27.861Z,99.90
2023-04-08T07:55:56.499Z,99.90
2023-04-08T07:58:32.197Z,99.90
2023-04-08T08:01:15.571Z,99.90
2023-04-08T08:03:46.241Z,99.90
2023-04-08T08:06:14.898Z,99.90
2023-04-08T08:08:43.597Z,98.50
2023-04-08T08:11:16.282Z,96.10
2023-04-08T08:13:48.024Z,96.50
2023-04-08T08:16:17.666Z,95.70
2023-04-08T08:18:46.226Z,99.90
2023-04-08T08:21:14.682Z,97.60
2023-04-08T08:23:44.437Z,99.90
2023-04-08T08:26:14.575Z,99.90
2023-04-08T08:28:44.624Z,98.10
2023-04-08T08:31:16.367Z,99.50
2023-04-08T08:33:44.787Z,99.90
2023-04-08T08:36:15.253Z,99.90
2023-04-08T08:38:43.922Z,95.30
2023-04-08T08:41:13.781Z,97.70
2023-04-08T08:43:51.823Z,96.10
2023-04-08T08:46:24.844Z,95.30
2023-04-08T08:48:58.807Z,90.30
2023-04-08T08:51:29.008Z,93.10
2023-04-08T08:53:57.572Z,93.80
2023-04-08T08:56:26.009Z,83.90
2023-04-08T08:58:57.696Z,80.80
2023-04-08T09:01:38.718Z,77.30
2023-04-08T09:04:13.787Z,80.10
2023-04-08T09:06:42.432Z,81.00
2023-04-08T09:09:14.114Z,83.50
2023-04-08T09:11:45.171Z,79.30
2023-04-08T09:14:24.055Z,79.60
2023-04-08T09:16:54.263Z,74.00
2023-04-08T09:19:24.407Z,71.40
2023-04-08T09:22:13.645Z,66.10
2023-04-08T09:24:44.868Z,68.60
2023-04-08T09:27:17.634Z,65.40
2023-04-08T09:29:51.146Z,57.90
2023-04-08T09:32:23.294Z,53.50
2023-04-08T09:34:58.351Z,57.00
2023-04-08T09:37:30.194Z,55.40
2023-04-08T09:40:06.493Z,65.50
2023-04-08T09:42:42.739Z,57.00
2023-04-08T09:45:13.241Z,60.20
2023-04-08T09:48:01.101Z,59.50
2023-04-08T09:50:36.002Z,56.90
2023-04-08T09:53:22.769Z,57.20
2023-04-08T09:56:00.133Z,61.90
2023-04-08T09:58:34.319Z,60.40
2023-04-08T10:01:06.695Z,60.60
2023-04-08T10:03:52.745Z,59.00
2023-04-08T10:06:40.616Z,53.00
2023-04-08T10:09:10.297Z,55.10
2023-04-08T10:11:38.826Z,50.70
2023-04-08T10:14:07.329Z,56.90
2023-04-08T10:16:36.189Z,57.20
2023-04-08T10:19:40.414Z,57.50
2023-04-08T10:22:45.105Z,56.80
2023-04-08T10:25:37.860Z,59.40
2023-04-08T10:28:27.309Z,61.90
2023-04-08T10:30:57.537Z,58.30
2023-04-08T10:33:34.626Z,59.40
2023-04-08T10:36:12.227Z,54.50
2023-04-08T10:38:42.387Z,53.00
2023-04-08T10:41:21.565Z,54.50
2023-04-08T10:43:50.479Z,55.00
2023-04-08T10:46:21.954Z,52.00
2023-04-08T10:49:01.897Z,55.90
2023-04-08T10:51:39.722Z,52.60
2023-04-08T10:54:10.483Z,50.60
2023-04-08T10:56:46.837Z,51.20
2023-04-08T10:59:29.691Z,48.20
2023-04-08T11:02:00.658Z,73.00
2023-04-08T11:04:35.344Z,50.60
2023-04-08T11:07:08.678Z,49.80
2023-04-08T11:09:42.660Z,52.00
2023-04-08T11:12:18.453Z,50.60
2023-04-08T11:14:48.561Z,53.60
2023-04-08T11:17:18.170Z,52.80
2023-04-08T11:19:47.541Z,53.90
2023-04-08T11:22:18.830Z,55.30
2023-04-08T11:24:47.687Z,53.20
2023-04-08T11:27:18.199Z,56.50
2023-04-08T11:29:51.193Z,59.30
2023-04-08T11:32:22.495Z,57.40
2023-04-08T11:34:58.020Z,59.50
2023-04-08T11:37:38.601Z,50.50
2023-04-08T11:40:14.801Z,51.20
2023-04-08T11:43:05.894Z,50.00
2023-04-08T11:45:49.658Z,47.90
2023-04-08T11:48:39.348Z,48.40
2023-04-08T11:51:24.448Z,52.40
2023-04-08T11:54:01.209Z,47.90
2023-04-08T11:56:36.185Z,48.80
2023-04-08T11:59:15.741Z,50.80
2023-04-08T12:01:44.571Z,49.70
2023-04-08T12:04:13.486Z,48.50
2023-04-08T12:06:43.793Z,48.20
2023-04-08T12:09:16.662Z,48.80
2023-04-08T12:11:47.344Z,42.10
2023-04-08T12:14:18.734Z,45.30
2023-04-08T12:17:01.476Z,41.60
2023-04-08T12:19:31.197Z,45.30
2023-04-08T12:22:01.029Z,47.20
2023-04-08T12:24:34.135Z,40.90
2023-04-08T12:27:04.787Z,39.10
2023-04-08T12:30:03.767Z,39.10
2023-04-08T12:32:25.754Z,35.20
2023-04-08T12:35:01.678Z,38.80
2023-04-08T12:37:33.526Z,42.40
2023-04-08T12:40:06.551Z,40.50
2023-04-08T12:42:35.914Z,46.70
2023-04-08T12:45:16.756Z,39.50
2023-04-08T12:47:45.525Z,39.20
2023-04-08T12:50:15.315Z,49.10
2023-04-08T12:52:43.858Z,48.70
2023-04-08T12:55:16.452Z,50.20
2023-04-08T12:57:44.910Z,48.10
2023-04-08T13:00:16.004Z,52.00
2023-04-08T13:02:45.685Z,53.50
2023-04-08T13:05:14.422Z,51.90
2023-04-08T13:07:45.210Z,53.50
2023-04-08T13:10:15.189Z,54.70
2023-04-08T13:12:47.981Z,54.80
2023-04-08T13:15:19.772Z,53.20
2023-04-08T13:17:49.926Z,54.60
2023-04-08T13:20:24.974Z,55.10
2023-04-08T13:22:55.569Z,57.10
2023-04-08T13:25:27.905Z,54.50
2023-04-08T13:28:02.784Z,53.60
2023-04-08T13:30:38.835Z,58.90
2023-04-08T13:33:08.640Z,56.10
2023-04-08T13:35:39.639Z,58.20
2023-04-08T13:38:14.724Z,56.60
2023-04-08T13:40:49.215Z,59.00
2023-04-08T13:43:23.314Z,56.40
2023-04-08T13:45:52.332Z,54.80
2023-04-08T13:48:23.827Z,66.00
2023-04-08T13:50:54.462Z,79.00
2023-04-08T13:53:26.326Z,66.40
2023-04-08T13:56:04.366Z,68.10
2023-04-08T13:58:35.099Z,71.40
2023-04-08T14:01:09.880Z,67.60
2023-04-08T14:03:42.176Z,65.80
2023-04-08T14:06:21.402Z,62.60
2023-04-08T14:08:50.556Z,61.50
2023-04-08T14:11:28.170Z,62.70
2023-04-08T14:13:56.845Z,67.80
2023-04-08T14:16:25.743Z,64.70
2023-04-08T14:18:58.825Z,63.30
2023-04-08T14:21:27.802Z,61.60
2023-04-08T14:24:02.560Z,62.80
2023-04-08T14:26:39.042Z,60.00
2023-04-08T14:29:10.463Z,61.40
2023-04-08T14:31:44.607Z,61.60
2023-04-08T14:34:34.617Z,56.80
2023-04-08T14:37:11.855Z,58.40
2023-04-08T14:39:47.669Z,57.50
2023-04-08T14:42:23.872Z,58.50
2023-04-08T14:45:02.648Z,58.50
2023-04-08T14:47:48.363Z,56.90
2023-04-08T14:50:28.365Z,58.60
2023-04-08T14:53:05.033Z,56.00
2023-04-08T14:58:21.681Z,55.10
2023-04-08T15:00:51.175Z,57.30
2023-04-08T15:03:31.542Z,56.30
2023-04-08T15:06:01.517Z,59.70
2023-04-08T15:08:32.253Z,59.50
2023-04-08T15:11:05.149Z,61.20
2023-04-08T15:13:41.775Z,62.10
2023-04-08T15:16:15.227Z,67.20
2023-04-08T15:18:47.771Z,68.80
2023-04-08T15:21:23.051Z,68.30
2023-04-08T15:24:00.657Z,67.30
2023-04-08T15:26:33.114Z,69.70
2023-04-08T15:29:13.528Z,68.00
2023-04-08T15:31:42.864Z,67.50
2023-04-08T15:34:14.092Z,66.20
2023-04-08T15:36:42.771Z,67.20
2023-04-08T15:39:13.905Z,69.20
2023-04-08T15:41:42.526Z,69.50
2023-04-08T15:44:16.764Z,67.40
2023-04-08T15:46:46.972Z,68.60
2023-04-08T15:49:20.981Z,70.10
2023-04-08T15:51:53.561Z,66.10
2023-04-08T15:54:24.000Z,59.70
2023-04-08T15:57:25.313Z,59.70
2023-04-08T15:59:45.807Z,78.10
2023-04-08T16:02:23.619Z,54.10
2023-04-08T16:05:05.371Z,57.40
2023-04-08T16:07:38.275Z,60.30
2023-04-08T16:10:13.765Z,57.80
2023-04-08T16:12:53.242Z,62.40
2023-04-08T16:15:30.276Z,57.10
2023-04-08T16:18:05.776Z,58.90
2023-04-08T16:20:44.813Z,62.60
2023-04-08T16:23:18.419Z,61.40
2023-04-08T16:25:51.382Z,61.70
2023-04-08T16:28:24.147Z,60.30
2023-04-08T16:30:57.898Z,57.50
2023-04-08T16:33:32.869Z,56.40
2023-04-08T16:36:05.406Z,78.20
2023-04-08T16:38:40.625Z,56.00
2023-04-08T16:41:18.183Z,56.80
2023-04-08T16:43:55.637Z,58.10
2023-04-08T16:46:31.276Z,62.00
2023-04-08T16:49:05.356Z,57.80
2023-04-08T16:51:34.476Z,60.60
2023-04-08T16:54:02.878Z,58.70
2023-04-08T16:56:31.638Z,60.10
2023-04-08T16:59:02.266Z,61.40
2023-04-08T17:01:32.178Z,58.20
2023-04-08T17:04:00.848Z,56.40
2023-04-08T17:06:39.562Z,55.60
2023-04-08T17:09:09.242Z,53.60
2023-04-08T17:11:40.864Z,56.60
2023-04-08T17:14:11.582Z,51.90
2023-04-08T17:16:45.271Z,54.40
2023-04-08T17:19:14.360Z,55.60
2023-04-08T17:21:43.025Z,59.20
2023-04-08T17:24:11.244Z,60.60
2023-04-08T17:26:41.948Z,42.50
2023-04-08T17:29:10.254Z,46.70
2023-04-08T17:31:40.264Z,65.90
2023-04-08T17:34:10.489Z,50.80
2023-04-08T17:36:38.748Z,50.20
2023-04-08T17:39:07.145Z,51.40
2023-04-08T17:41:40.336Z,49.40
2023-04-08T17:44:18.592Z,88.10
2023-04-08T17:47:01.900Z,99.90
2023-04-08T17:49:32.055Z,99.90
2023-04-08T17:52:04.749Z,1.00
2023-04-08T17:54:34.697Z,99.90
2023-04-08T17:57:03.696Z,99.90
2023-04-08T17:59:32.135Z,1.00
2023-04-08T18:02:00.650Z,1.00
2023-04-08T18:04:29.946Z,99.90
2023-04-08T18:06:59.777Z,99.90
2023-04-08T18:09:28.241Z,99.90
2023-04-08T18:12:01.102Z,99.90
2023-04-08T18:14:30.225Z,99.90
2023-04-08T18:17:11.644Z,1.00
2023-04-08T18:19:40.228Z,99.90
2023-04-08T18:22:14.259Z,1.00
2023-04-08T18:24:42.819Z,99.90
2023-04-08T18:27:11.462Z,99.90
2023-04-08T18:29:42.966Z,1.00
2023-04-08T18:32:11.552Z,1.00
2023-04-08T18:34:47.349Z,1.00
2023-04-08T18:37:18.115Z,1.00
2023-04-08T18:39:48.856Z,1.00
2023-04-08T18:42:28.279Z,1.00
2023-04-08T18:44:56.753Z,28.10
2023-04-08T18:47:25.179Z,65.20
2023-04-08T18:49:59.402Z,93.70
2023-04-08T18:52:33.497Z,99.90
2023-04-08T18:55:02.769Z,99.90
2023-04-08T18:57:31.348Z,99.90
2023-04-08T18:59:59.814Z,99.90
2023-04-08T19:02:28.193Z,99.90
2023-04-08T19:04:58.243Z,99.90
2023-04-08T19:07:29.899Z,99.90
2023-04-08T19:09:58.685Z,99.90
2023-04-08T19:12:27.357Z,99.90
2023-04-08T19:14:56.009Z,99.90
2023-04-08T19:17:24.341Z,99.90
2023-04-08T19:19:52.844Z,99.90
2023-04-08T19:22:21.066Z,99.90
2023-04-08T19:24:53.721Z,99.90
2023-04-08T19:27:23.146Z,99.90
2023-04-08T19:29:51.413Z,99.90
2023-04-08T19:32:20.079Z,99.90
2023-04-08T19:34:48.591Z,99.90
2023-04-08T19:37:16.942Z,99.90
2023-04-08T19:39:45.292Z,99.90
2023-04-08T19:42:15.033Z,99.90
2023-04-08T19:44:43.329Z,99.90
2023-04-08T19:47:11.714Z,99.90
2023-04-08T19:49:40.062Z,99.90
2023-04-08T19:52:08.341Z,99.90
2023-04-08T19:54:37.160Z,99.90
2023-04-08T19:57:08.211Z,99.90
2023-04-08T19:59:38.245Z,99.90
2023-04-08T20:02:06.709Z,99.90
2023-04-08T20:04:35.084Z,99.90
2023-04-08T20:07:03.968Z,99.90
2023-04-08T20:09:32.904Z,99.90
2023-04-08T20:12:04.764Z,99.90
2023-04-08T20:14:33.892Z,99.90
2023-04-08T20:17:04.509Z,99.90
2023-04-08T20:19:32.857Z,99.90
2023-04-08T20:22:01.705Z,99.90
2023-04-08T20:24:30.033Z,99.90
2023-04-08T20:26:59.237Z,99.90
2023-04-08T20:29:28.640Z,99.90
2023-04-08T20:31:56.957Z,99.90
2023-04-08T20:34:26.715Z,99.90
2023-04-08T20:36:55.093Z,99.90
2023-04-08T20:39:29.555Z,99.90
2023-04-08T20:41:58.318Z,99.90
2023-04-08T20:44:26.882Z,99.90
2023-04-08T20:46:55.824Z,99.90
2023-04-08T20:49:24.376Z,99.90
2023-04-08T20:51:54.449Z,99.90
2023-04-08T20:54:22.721Z,99.90
2023-04-08T20:56:50.948Z,99.90
2023-04-08T20:59:19.888Z,99.90
2023-04-08T21:01:48.483Z,99.90
2023-04-08T21:04:17.732Z,99.90
2023-04-08T21:06:46.223Z,99.90
2023-04-08T21:09:15.803Z,99.90
2023-04-08T21:11:44.203Z,99.90
2023-04-08T21:14:12.506Z,99.90
2023-04-08T21:16:40.791Z,99.90
2023-04-08T21:19:09.158Z,99.90
2023-04-08T21:21:37.365Z,99.90
2023-04-08T21:24:07.123Z,99.90
2023-04-08T21:26:37.195Z,99.90
2023-04-08T21:29:05.551Z,99.90
2023-04-08T21:31:34.819Z,99.90
2023-04-08T21:34:03.072Z,99.90
2023-04-08T21:36:31.482Z,99.90
2023-04-08T21:38:59.716Z,99.90
2023-04-08T21:41:30.207Z,99.90
2023-04-08T21:44:00.473Z,99.90
2023-04-08T21:46:28.821Z,99.90
2023-04-08T21:48:57.036Z,99.90
2023-04-08T21:51:25.354Z,99.90
2023-04-08T21:53:53.881Z,99.90
2023-04-08T21:56:22.432Z,99.90
2023-04-08T21:58:51.120Z,99.90
2023-04-08T22:01:21.006Z,99.90
2023-04-08T22:03:49.677Z,99.90
2023-04-08T22:06:29.186Z,99.90
2023-04-08T22:09:00.377Z,99.90
2023-04-08T22:11:28.605Z,99.90
2023-04-08T22:13:56.862Z,99.90
2023-04-08T22:16:26.545Z,99.90
2023-04-08T22:18:54.984Z,99.90
2023-04-08T22:21:23.754Z,99.90
2023-04-08T22:23:51.996Z,99.90
2023-04-08T22:26:21.238Z,99.90
2023-04-08T22:28:49.745Z,99.90
2023-04-08T22:31:18.386Z,99.90
2023-04-08T22:33:48.105Z,99.90
2023-04-08T22:36:16.975Z,99.90
2023-04-08T22:38:46.392Z,99.90
2023-04-08T22:41:18.971Z,99.90
2023-04-08T22:43:47.552Z,99.90
2023-04-08T22:46:18.254Z,99.90
2023-04-08T22:48:49.429Z,99.90
2023-04-08T22:51:17.931Z,99.90
2023-04-08T22:53:46.256Z,99.90
2023-04-08T22:56:14.525Z,99.90
2023-04-08T22:58:42.792Z,99.90
2023-04-08T23:01:17.219Z,99.90
2023-04-08T23:03:47.182Z,99.90
2023-04-08T23:06:15.996Z,99.90
2023-04-08T23:08:44.393Z,99.90
2023-04-08T23:11:12.685Z,99.90
2023-04-08T23:13:40.886Z,99.90
2023-04-08T23:16:09.932Z,99.90
2023-04-08T23:18:38.182Z,99.90
2023-04-08T23:21:07.936Z,99.90
2023-04-08T23:23:36.249Z,99.90
2023-04-08T23:26:04.433Z,99.90
2023-04-08T23:28:34.511Z,99.90
2023-04-08T23:31:05.674Z,99.90
2023-04-08T23:33:33.970Z,99.90
2023-04-08T23:36:02.279Z,99.90
2023-04-08T23:38:32.141Z,99.90
2023-04-08T23:41:00.514Z,99.90
2023-04-08T23:43:28.674Z,99.90
2023-04-08T23:45:56.941Z,99.90
2023-04-08T23:48:25.356Z,99.90
2023-04-08T23:50:54.142Z,99.90
2023-04-08T23:53:23.176Z,99.90
2023-04-08T23:55:52.794Z,99.90
2023-04-08T23:58:21.084Z,99.90
